Time;durP1;ratioP1;P1;durP2;ratioP2;P2;SDS_P1;SDS_P2;PMS_P1;PMS_P2;Temp;Humidity;BMP_temperature;BMP_pressure;BME280_temperature;BME280_humidity;BME280_pressure;Samples;Min_cycle;Max_cycle;Signal;HPM_P1;HPM_P2
2022/05/03 00:02:10;;;;;;;2.27;2.07;;;22.90;53.30;;;;;;4991175;28;20441;-84
2022/05/03 00:05:03;;;;;;;2.33;2.13;;;22.90;53.30;;;;;;4990395;28;20429;-84
2022/05/03 00:07:31;;;;;;;2.63;2.43;;;22.90;53.30;;;;;;4995900;28;20443;-84
2022/05/03 00:10:21;;;;;;;2.17;1.97;;;22.90;53.30;;;;;;5009622;28;20417;-84
2022/05/03 00:13:00;;;;;;;1.57;1.47;;;23.00;53.40;;;;;;5010688;28;20488;-83
2022/05/03 00:15:26;;;;;;;2.57;2.37;;;23.00;53.40;;;;;;5010678;28;20470;-84
2022/05/03 00:17:54;;;;;;;2.13;1.93;;;22.90;53.30;;;;;;5006094;28;20434;-84
2022/05/03 00:20:22;;;;;;;1.90;1.80;;;23.00;53.30;;;;;;4991497;28;20402;-83
2022/05/03 00:22:48;;;;;;;2.17;1.97;;;22.90;53.30;;;;;;4974146;28;20425;-84
2022/05/03 00:25:33;;;;;;;2.20;2.00;;;23.00;53.30;;;;;;4990761;28;20443;-84
2022/05/03 00:28:00;;;;;;;1.80;1.70;;;23.00;53.30;;;;;;4974659;28;20429;-84
2022/05/03 00:30:26;;;;;;;2.00;1.80;;;23.00;53.30;;;;;;4989596;28;20437;-84
2022/05/03 00:32:54;;;;;;;1.90;1.77;;;23.00;53.30;;;;;;4990905;28;20417;-84
2022/05/03 00:35:21;;;;;;;2.40;2.17;;;23.00;53.30;;;;;;4989631;28;20472;-84
2022/05/03 00:37:49;;;;;;;2.40;2.20;;;23.00;53.30;;;;;;4989418;28;20413;-84
2022/05/03 00:40:20;;;;;;;2.20;2.00;;;23.00;53.30;;;;;;4990516;28;20405;-84
2022/05/03 00:43:15;;;;;;;2.80;2.40;;;23.00;53.30;;;;;;4991141;28;20405;-84
2022/05/03 00:45:41;;;;;;;2.00;1.80;;;23.00;53.30;;;;;;4978968;28;20408;-84
2022/05/03 00:48:20;;;;;;;1.90;1.70;;;22.90;53.20;;;;;;4992047;28;20452;-84
2022/05/03 00:51:10;;;;;;;1.87;1.77;;;23.00;53.30;;;;;;4991880;28;20239;-84
2022/05/03 00:54:16;;;;;;;1.90;1.80;;;23.00;53.30;;;;;;4998115;28;20460;-84
2022/05/03 00:57:09;;;;;;;2.07;1.97;;;23.00;53.30;;;;;;5010158;28;20427;-83
2022/05/03 01:00:09;;;;;;;2.90;2.00;;;22.90;53.30;;;;;;5010636;28;20454;-84
2022/05/03 01:02:53;;;;;;;2.07;1.87;;;22.90;53.30;;;;;;4986088;28;20429;-83
2022/05/03 01:05:54;;;;;;;2.23;2.03;;;22.90;53.30;;;;;;5008831;28;20424;-84
2022/05/03 01:08:45;;;;;;;2.00;1.80;;;22.90;53.30;;;;;;4994758;28;20451;-84
2022/05/03 01:11:30;;;;;;;1.80;1.70;;;22.90;53.40;;;;;;5010075;28;20421;-83
2022/05/03 01:14:25;;;;;;;2.10;1.90;;;22.90;53.30;;;;;;5010825;28;20918;-83
2022/05/03 01:17:13;;;;;;;1.87;1.70;;;22.90;53.40;;;;;;5008099;28;20851;-83
2022/05/03 01:19:58;;;;;;;2.53;2.00;;;22.90;53.40;;;;;;4981002;28;20429;-83
2022/05/03 01:23:08;;;;;;;2.17;1.97;;;22.90;53.40;;;;;;5012502;28;20444;-84
2022/05/03 01:25:57;;;;;;;2.00;1.80;;;22.90;53.30;;;;;;4994985;28;20421;-83
2022/05/03 01:28:43;;;;;;;2.10;1.87;;;22.90;53.40;;;;;;4995532;28;20468;-83
2022/05/03 01:31:13;;;;;;;2.07;1.87;;;22.90;53.40;;;;;;5076780;28;20444;-83
2022/05/03 01:33:45;;;;;;;1.87;1.70;;;22.90;53.40;;;;;;5075978;28;20477;-83
2022/05/03 01:36:15;;;;;;;1.80;1.70;;;22.90;53.30;;;;;;5076141;28;20452;-83
2022/05/03 01:39:15;;;;;;;1.70;1.60;;;22.90;53.30;;;;;;5060407;28;20421;-83
2022/05/03 01:42:08;;;;;;;2.00;1.80;;;22.90;53.30;;;;;;5076706;28;20429;-84
2022/05/03 01:44:50;;;;;;;2.10;1.97;;;22.90;53.30;;;;;;5076372;28;20401;-83
2022/05/03 01:47:57;;;;;;;2.30;2.10;;;22.90;53.90;;;;;;5058663;28;20428;-83
2022/05/03 01:50:45;;;;;;;2.10;1.90;;;22.90;53.30;;;;;;5074686;28;20390;-83
2022/05/03 01:53:32;;;;;;;2.47;2.10;;;22.90;53.30;;;;;;5058632;28;20424;-83
2022/05/03 01:56:11;;;;;;;2.10;1.90;;;22.90;53.30;;;;;;5073156;28;20843;-83
2022/05/03 01:59:09;;;;;;;1.70;1.60;;;22.90;53.30;;;;;;5074284;28;20389;-83
2022/05/03 02:01:41;;;;;;;1.73;1.57;;;22.90;53.30;;;;;;5049818;28;20410;-84
2022/05/03 02:04:15;;;;;;;2.00;1.80;;;22.90;53.30;;;;;;5056910;28;20481;-84
2022/05/03 02:06:47;;;;;;;1.70;1.60;;;22.90;53.30;;;;;;5040532;28;20424;-84
2022/05/03 02:09:21;;;;;;;2.33;2.17;;;22.90;53.30;;;;;;4997904;28;20414;-84
2022/05/03 02:12:32;;;;;;;1.80;1.70;;;22.90;53.30;;;;;;4995076;28;20443;-84
2022/05/03 02:15:17;;;;;;;1.90;1.80;;;22.90;53.30;;;;;;5076922;28;20502;-83
2022/05/03 02:18:22;;;;;;;1.70;1.60;;;22.90;53.30;;;;;;5061231;28;20406;-83
2022/05/03 02:24:36;;;;;;;1.90;1.70;;;22.90;53.30;;;;;;5017557;28;20489;-83
2022/05/03 02:27:11;;;;;;;1.57;1.43;;;22.90;53.30;;;;;;5017048;28;20427;-83
2022/05/03 02:29:49;;;;;;;1.50;1.40;;;22.80;53.20;;;;;;5016547;28;20423;-83
2022/05/03 02:32:45;;;;;;;2.03;1.67;;;22.90;53.30;;;;;;5016837;28;20420;-83
2022/05/03 02:35:20;;;;;;;1.40;1.30;;;22.90;53.30;;;;;;5016439;28;20511;-83
2022/05/03 02:37:56;;;;;;;1.60;1.50;;;22.90;53.30;;;;;;5016551;28;20455;-83
2022/05/03 02:40:31;;;;;;;2.10;1.70;;;22.90;53.30;;;;;;5014664;28;20416;-83
2022/05/03 02:42:58;;;;;;;1.50;1.40;;;22.80;53.30;;;;;;5016702;28;20416;-83
2022/05/03 02:45:29;;;;;;;1.77;1.67;;;22.90;53.30;;;;;;5016029;28;20413;-83
2022/05/03 02:48:14;;;;;;;2.20;2.00;;;22.80;53.20;;;;;;5016419;28;20460;-83
2022/05/03 02:51:04;;;;;;;2.03;1.93;;;22.90;53.30;;;;;;5014486;28;20424;-83
2022/05/03 02:53:55;;;;;;;2.10;1.60;;;22.90;53.30;;;;;;4954787;29;20419;-83
2022/05/03 02:56:39;;;;;;;2.07;1.80;;;22.90;53.30;;;;;;4955966;28;20447;-83
2022/05/03 02:59:18;;;;;;;2.03;1.83;;;22.90;53.30;;;;;;4954762;28;20399;-83
2022/05/03 03:02:36;;;;;;;2.30;2.10;;;22.90;53.30;;;;;;4993885;28;20413;-84
2022/05/03 03:05:12;;;;;;;2.00;1.80;;;22.90;53.30;;;;;;4994632;28;20413;-84
2022/05/03 03:08:01;;;;;;;1.63;1.53;;;22.90;53.30;;;;;;5009421;28;20433;-83
2022/05/03 03:11:10;;;;;;;2.33;1.60;;;22.90;53.30;;;;;;4995110;28;20401;-84
2022/05/03 03:13:53;;;;;;;1.87;1.67;;;22.90;53.30;;;;;;5073130;28;20441;-83
2022/05/03 03:16:39;;;;;;;1.90;1.80;;;22.80;53.20;;;;;;5058016;28;20406;-83
2022/05/03 03:19:24;;;;;;;1.80;1.67;;;22.80;53.10;;;;;;5075061;28;20388;-83
2022/05/03 03:21:53;;;;;;;1.73;1.63;;;22.80;53.20;;;;;;5075048;28;20389;-84
2022/05/03 03:24:22;;;;;;;2.60;1.97;;;22.80;53.10;;;;;;5074332;28;20397;-84
2022/05/03 03:26:52;;;;;;;1.70;1.60;;;22.80;53.10;;;;;;5041484;28;20414;-84
2022/05/03 03:29:25;;;;;;;2.87;2.00;;;22.90;53.20;;;;;;5073997;28;20413;-83
2022/05/03 03:31:58;;;;;;;1.63;1.50;;;22.90;53.20;;;;;;5058549;28;20433;-84
2022/05/03 03:34:28;;;;;;;2.67;2.40;;;22.80;53.10;;;;;;5058685;28;20458;-83
2022/05/03 03:37:04;;;;;;;1.73;1.63;;;22.90;53.10;;;;;;5074863;28;20982;-83
2022/05/03 03:39:31;;;;;;;2.37;2.17;;;22.90;53.10;;;;;;5056710;28;20405;-84
2022/05/03 03:42:05;;;;;;;1.63;1.50;;;22.90;53.10;;;;;;5053932;28;20474;-84
2022/05/03 03:44:31;;;;;;;1.87;1.70;;;22.90;53.10;;;;;;5052293;28;20466;-83
2022/05/03 03:47:01;;;;;;;2.10;1.90;;;22.90;53.20;;;;;;4974324;28;20438;-83
2022/05/03 03:49:29;;;;;;;2.00;1.60;;;22.90;53.10;;;;;;4991346;28;20419;-84
2022/05/03 03:51:57;;;;;;;2.57;1.73;;;22.80;53.10;;;;;;5008022;28;20779;-84
2022/05/03 03:54:24;;;;;;;2.13;1.93;;;22.80;53.10;;;;;;5008582;28;20468;-84
2022/05/03 03:56:51;;;;;;;2.20;2.00;;;22.90;53.10;;;;;;5009888;28;20412;-84
2022/05/03 03:59:18;;;;;;;2.00;1.80;;;22.90;53.10;;;;;;5009715;28;20440;-84
2022/05/03 04:01:44;;;;;;;2.07;1.67;;;22.90;53.10;;;;;;5010230;28;20408;-84
2022/05/03 04:04:11;;;;;;;2.00;1.67;;;22.80;53.00;;;;;;5009173;28;20462;-84
2022/05/03 04:06:38;;;;;;;1.67;1.53;;;22.80;53.00;;;;;;5009058;28;20416;-84
2022/05/03 04:09:05;;;;;;;2.83;2.63;;;22.80;53.00;;;;;;5008766;28;20439;-84
2022/05/03 04:11:47;;;;;;;1.70;1.60;;;22.80;53.00;;;;;;5008729;28;20443;-84
2022/05/03 04:14:14;;;;;;;1.90;1.80;;;22.80;53.10;;;;;;5007974;28;20464;-83
2022/05/03 04:16:41;;;;;;;1.87;1.77;;;22.80;53.10;;;;;;5009528;28;20447;-83
2022/05/03 04:19:08;;;;;;;1.70;1.60;;;22.80;53.10;;;;;;5009812;28;20425;-84
2022/05/03 04:21:34;;;;;;;2.07;1.87;;;22.80;53.10;;;;;;5010152;28;20416;-84
2022/05/03 04:24:00;;;;;;;1.70;1.60;;;22.80;53.10;;;;;;4993115;28;20429;-84
2022/05/03 04:26:28;;;;;;;1.90;1.80;;;22.80;53.10;;;;;;5011361;28;20431;-84
2022/05/03 04:28:59;;;;;;;1.83;1.60;;;22.80;53.10;;;;;;5012197;28;20441;-83
2022/05/03 04:31:30;;;;;;;2.90;1.97;;;22.80;53.10;;;;;;5011949;28;20420;-84
2022/05/03 04:34:21;;;;;;;1.70;1.60;;;22.80;53.10;;;;;;5012098;28;20495;-83
2022/05/03 04:36:48;;;;;;;1.93;1.83;;;22.80;53.10;;;;;;5010581;28;20458;-83
2022/05/03 04:39:15;;;;;;;1.80;1.70;;;22.80;53.10;;;;;;5012511;28;20404;-83
2022/05/03 04:41:40;;;;;;;1.97;1.60;;;22.80;53.10;;;;;;5010989;28;20416;-84
2022/05/03 04:44:07;;;;;;;2.10;1.90;;;22.80;53.10;;;;;;5011942;28;20419;-83
2022/05/03 04:46:33;;;;;;;4.20;2.00;;;22.80;53.10;;;;;;5010867;28;20430;-83
2022/05/03 04:48:58;;;;;;;2.20;1.73;;;22.80;53.10;;;;;;5010830;28;20448;-83
2022/05/03 04:51:29;;;;;;;1.80;1.70;;;22.80;53.10;;;;;;5010383;28;20250;-84
2022/05/03 04:53:55;;;;;;;2.30;1.77;;;22.80;53.20;;;;;;4992184;28;20205;-84
2022/05/03 04:56:35;;;;;;;2.57;2.23;;;22.80;53.20;;;;;;4992521;28;20429;-83
2022/05/03 04:59:03;;;;;;;2.13;1.87;;;22.80;53.30;;;;;;4980117;28;20412;-82
2022/05/03 05:01:29;;;;;;;2.53;2.13;;;22.80;53.30;;;;;;4994543;28;20436;-84
2022/05/03 05:03:57;;;;;;;2.73;2.00;;;22.80;53.40;;;;;;5005534;28;20463;-82
2022/05/03 05:06:23;;;;;;;1.87;1.77;;;22.80;53.40;;;;;;5011948;28;20432;-84
2022/05/03 05:08:52;;;;;;;2.50;2.30;;;22.80;53.40;;;;;;5015169;28;20479;-83
2022/05/03 05:11:18;;;;;;;1.87;1.70;;;22.80;53.40;;;;;;5013170;28;20483;-84
2022/05/03 05:13:45;;;;;;;1.93;1.73;;;22.80;53.40;;;;;;5012542;28;20460;-86
2022/05/03 05:16:14;;;;;;;1.80;1.67;;;22.80;53.40;;;;;;5012638;28;20458;-84
2022/05/03 05:18:44;;;;;;;2.37;2.03;;;22.80;53.40;;;;;;5014511;28;20177;-83
2022/05/03 05:21:12;;;;;;;2.10;1.90;;;22.80;53.40;;;;;;5015647;28;20419;-83
2022/05/03 05:24:02;;;;;;;2.40;2.20;;;22.80;53.40;;;;;;5015324;28;20416;-83
2022/05/03 05:26:32;;;;;;;1.67;1.57;;;22.90;53.50;;;;;;5015184;28;20396;-83
2022/05/03 05:28:58;;;;;;;2.40;2.03;;;22.80;53.40;;;;;;4999622;28;20447;-83
2022/05/03 05:31:24;;;;;;;2.20;2.00;;;22.90;53.50;;;;;;5014941;28;20436;-83
2022/05/03 05:33:52;;;;;;;2.40;2.20;;;22.90;53.50;;;;;;5014357;28;20468;-83
2022/05/03 05:36:22;;;;;;;2.40;2.20;;;22.90;53.50;;;;;;5014821;28;20401;-83
2022/05/03 05:38:51;;;;;;;1.97;1.83;;;22.90;53.50;;;;;;5004804;28;20451;-83
2022/05/03 05:41:18;;;;;;;2.23;2.03;;;22.90;53.50;;;;;;4996384;28;20405;-83
2022/05/03 05:43:51;;;;;;;2.20;2.00;;;22.90;53.40;;;;;;5003642;28;20409;-83
2022/05/03 05:46:22;;;;;;;1.73;1.63;;;22.90;53.40;;;;;;5014190;28;20435;-83
2022/05/03 05:48:48;;;;;;;2.33;1.80;;;22.90;53.40;;;;;;5012609;28;20432;-83
2022/05/03 05:51:15;;;;;;;2.03;1.83;;;22.90;53.40;;;;;;4996309;28;20416;-83
2022/05/03 05:53:43;;;;;;;2.27;2.07;;;22.90;53.40;;;;;;5002572;28;20421;-83
2022/05/03 05:56:10;;;;;;;2.40;2.13;;;22.90;53.40;;;;;;5004171;28;20182;-83
2022/05/03 05:58:37;;;;;;;1.83;1.73;;;22.90;53.40;;;;;;5008397;28;20489;-83
2022/05/03 06:01:05;;;;;;;1.60;1.50;;;22.90;53.40;;;;;;5008397;28;20256;-83
2022/05/03 06:03:32;;;;;;;2.40;2.20;;;22.90;54.00;;;;;;5007358;28;20448;-83
2022/05/03 06:06:00;;;;;;;2.40;2.30;;;22.90;53.40;;;;;;4993490;28;20421;-83
2022/05/03 06:08:26;;;;;;;2.33;2.13;;;23.00;53.50;;;;;;5004427;28;20420;-83
2022/05/03 06:10:52;;;;;;;2.33;1.97;;;22.90;53.30;;;;;;4987752;28;20433;-83
2022/05/03 06:13:21;;;;;;;2.23;2.00;;;23.00;53.40;;;;;;5008649;28;20471;-83
2022/05/03 06:15:48;;;;;;;2.20;2.00;;;23.00;53.40;;;;;;4977227;28;20493;-83
2022/05/03 06:18:15;;;;;;;2.50;2.23;;;23.00;53.40;;;;;;5009085;28;20448;-83
2022/05/03 06:20:43;;;;;;;2.10;2.00;;;23.00;53.30;;;;;;5007601;28;20431;-83
2022/05/03 06:23:09;;;;;;;2.13;1.93;;;23.00;53.30;;;;;;4980189;28;20436;-83
2022/05/03 06:25:35;;;;;;;1.97;1.70;;;23.00;53.30;;;;;;4998106;28;20412;-83
2022/05/03 06:28:02;;;;;;;1.90;1.60;;;23.00;53.40;;;;;;5010070;28;20417;-84
2022/05/03 06:30:30;;;;;;;2.00;1.90;;;23.00;53.30;;;;;;5009742;28;20423;-84
2022/05/03 06:32:57;;;;;;;2.03;1.83;;;23.00;53.30;;;;;;5009062;28;20177;-84
2022/05/03 06:35:23;;;;;;;3.70;2.20;;;23.00;53.30;;;;;;5007239;28;20444;-84
2022/05/03 06:37:50;;;;;;;3.80;1.90;;;23.00;53.30;;;;;;5014452;28;21220;-84
2022/05/03 06:40:16;;;;;;;2.63;2.30;;;23.00;53.30;;;;;;5036326;28;20561;-84
2022/05/03 06:42:42;;;;;;;2.23;2.03;;;23.00;53.20;;;;;;5008631;28;20451;-84
2022/05/03 06:45:10;;;;;;;2.23;2.03;;;23.00;53.30;;;;;;5008015;28;20792;-84
2022/05/03 06:47:36;;;;;;;3.77;2.20;;;23.00;53.30;;;;;;5005453;28;20459;-84
2022/05/03 06:50:03;;;;;;;2.50;1.80;;;23.00;53.20;;;;;;5007970;28;20420;-84
2022/05/03 06:52:29;;;;;;;4.23;2.20;;;23.00;53.20;;;;;;5008183;28;20510;-84
2022/05/03 06:54:56;;;;;;;2.17;1.97;;;23.10;53.30;;;;;;5008998;28;20468;-84
2022/05/03 06:57:23;;;;;;;2.63;2.23;;;23.10;53.30;;;;;;5010605;28;20479;-83
2022/05/03 06:59:50;;;;;;;2.40;2.20;;;23.10;53.30;;;;;;5009140;28;20420;-83
2022/05/03 07:02:16;;;;;;;2.80;2.40;;;23.10;53.30;;;;;;5021655;28;20178;-83
2022/05/03 07:04:46;;;;;;;2.00;1.80;;;23.10;53.30;;;;;;5004174;28;20462;-83
2022/05/03 07:07:13;;;;;;;2.20;2.00;;;23.10;53.30;;;;;;5009222;28;20173;-83
2022/05/03 07:09:40;;;;;;;2.83;2.03;;;23.10;53.30;;;;;;5008357;28;20427;-83
2022/05/03 07:12:08;;;;;;;1.70;1.60;;;23.10;53.30;;;;;;5009043;28;20446;-83
2022/05/03 07:14:34;;;;;;;2.20;1.90;;;23.10;53.30;;;;;;5008912;28;20466;-83
2022/05/03 07:17:00;;;;;;;2.67;2.00;;;23.10;53.30;;;;;;5007394;28;20456;-83
2022/05/03 07:22:57;;;;;;;3.80;2.00;;;23.10;53.40;;;;;;5007691;28;20184;-82
2022/05/03 07:24:58;;;;;;;3.60;2.10;;;23.10;53.30;;;;;;5025438;28;20439;-82
2022/05/03 07:27:28;;;;;;;2.27;2.07;;;23.10;53.30;;;;;;5010492;28;20424;-82
2022/05/03 07:29:54;;;;;;;2.50;2.03;;;23.10;53.30;;;;;;5008883;28;20452;-84
2022/05/03 07:32:26;;;;;;;2.50;2.07;;;23.10;53.30;;;;;;4988662;28;20445;-83
2022/05/03 07:34:52;;;;;;;2.70;2.17;;;23.10;53.30;;;;;;5006499;28;20869;-83
2022/05/03 07:37:18;;;;;;;3.87;2.50;;;23.10;53.30;;;;;;5009280;28;20466;-83
2022/05/03 07:39:44;;;;;;;3.03;2.10;;;23.10;53.40;;;;;;5006659;28;20555;-83
2022/05/03 07:42:12;;;;;;;3.67;2.23;;;23.10;53.30;;;;;;4991045;28;20899;-83
2022/05/03 07:44:40;;;;;;;2.17;1.97;;;23.10;53.30;;;;;;4991560;28;20463;-83
2022/05/03 07:47:09;;;;;;;1.93;1.83;;;23.10;53.50;;;;;;4992681;28;20409;-83
2022/05/03 07:49:35;;;;;;;2.67;2.10;;;23.10;53.30;;;;;;4991271;28;20437;-83
2022/05/03 07:52:01;;;;;;;2.77;2.30;;;23.10;53.30;;;;;;4991895;28;20428;-83
2022/05/03 07:54:30;;;;;;;2.27;2.00;;;23.10;53.30;;;;;;4992415;28;20477;-83
2022/05/03 07:57:50;;;;;;;2.27;2.07;;;23.10;53.30;;;;;;4991215;28;20443;-84
2022/05/03 08:00:18;;;;;;;2.63;2.00;;;23.10;53.30;;;;;;4992823;28;20154;-83
2022/05/03 08:02:44;;;;;;;3.17;1.90;;;23.10;53.30;;;;;;4992993;28;20413;-82
2022/05/03 08:05:12;;;;;;;2.90;2.63;;;23.10;53.30;;;;;;4992697;28;20413;-83
2022/05/03 08:07:48;;;;;;;2.20;1.80;;;23.10;53.30;;;;;;4992707;28;20409;-83
2022/05/03 08:10:14;;;;;;;1.80;1.70;;;23.10;53.30;;;;;;4992461;28;20385;-83
2022/05/03 08:12:40;;;;;;;3.33;2.27;;;23.10;53.30;;;;;;4991628;28;20478;-83
2022/05/03 08:15:09;;;;;;;2.10;1.90;;;23.10;53.30;;;;;;4975575;28;20216;-83
2022/05/03 08:17:37;;;;;;;3.13;2.47;;;23.10;53.30;;;;;;4991710;28;20532;-82
2022/05/03 08:20:05;;;;;;;4.10;2.27;;;23.10;53.30;;;;;;4991371;28;20413;-83
2022/05/03 08:22:33;;;;;;;2.47;1.97;;;23.10;53.30;;;;;;4976276;28;20421;-83
2022/05/03 08:25:04;;;;;;;3.23;2.60;;;23.10;53.30;;;;;;4992730;28;20965;-83
2022/05/03 08:27:41;;;;;;;2.03;1.83;;;23.10;53.30;;;;;;4992581;28;20421;-83
2022/05/03 08:30:09;;;;;;;3.60;2.23;;;23.10;53.30;;;;;;4993036;28;20415;-83
2022/05/03 08:32:36;;;;;;;3.20;2.40;;;23.10;53.30;;;;;;4991246;28;20436;-83
2022/05/03 08:35:05;;;;;;;3.60;2.03;;;23.10;53.30;;;;;;5000787;28;20451;-83
2022/05/03 08:43:08;;;;;;;4.90;2.30;;;23.10;53.30;;;;;;5010594;28;20404;-83
2022/05/03 08:45:37;;;;;;;2.23;2.00;;;23.10;53.30;;;;;;5011363;28;20438;-83
2022/05/03 08:48:03;;;;;;;2.43;2.17;;;23.10;53.30;;;;;;5027026;28;20411;-83
2022/05/03 08:50:37;;;;;;;2.37;2.00;;;23.10;53.30;;;;;;5010888;28;20416;-83
2022/05/03 08:53:05;;;;;;;2.80;2.17;;;23.10;53.30;;;;;;5010949;28;20889;-83
2022/05/03 08:55:32;;;;;;;2.73;2.17;;;23.10;53.30;;;;;;5009744;28;20471;-83
2022/05/03 08:58:04;;;;;;;3.60;2.60;;;23.10;53.30;;;;;;5011239;28;20409;-83
2022/05/03 09:00:32;;;;;;;2.90;2.57;;;23.10;53.30;;;;;;5010999;28;20489;-83
2022/05/03 09:02:58;;;;;;;2.20;1.77;;;23.10;53.30;;;;;;4993508;28;20473;-83
2022/05/03 09:05:25;;;;;;;2.80;2.30;;;23.10;53.30;;;;;;5010531;28;20496;-83
2022/05/03 09:07:54;;;;;;;2.40;2.20;;;23.10;53.30;;;;;;5010294;28;20417;-83
2022/05/03 09:10:28;;;;;;;2.27;1.83;;;23.10;53.30;;;;;;5010360;28;20416;-83
2022/05/03 09:12:57;;;;;;;2.37;2.03;;;23.10;53.30;;;;;;5008046;28;20434;-83
2022/05/03 09:15:33;;;;;;;2.70;2.50;;;23.10;53.30;;;;;;5023967;28;20535;-82
2022/05/03 09:18:02;;;;;;;2.57;2.37;;;23.10;53.30;;;;;;5008068;28;20420;-83
2022/05/03 09:26:21;;;;;;;2.00;1.70;;;23.10;53.30;;;;;;5009180;28;20391;-83
2022/05/03 09:28:53;;;;;;;4.47;2.37;;;23.10;53.40;;;;;;5023941;28;20435;-83
2022/05/03 09:31:42;;;;;;;3.93;2.37;;;23.10;53.40;;;;;;5023992;28;20430;-83
2022/05/03 09:34:25;;;;;;;2.30;1.83;;;23.10;53.40;;;;;;5024026;28;20977;-82
2022/05/03 09:36:58;;;;;;;2.00;1.80;;;23.10;53.50;;;;;;5006998;28;20423;-83
2022/05/03 09:39:25;;;;;;;2.60;2.07;;;23.10;53.50;;;;;;5009131;28;20943;-83
2022/05/03 09:42:17;;;;;;;2.90;2.03;;;23.10;53.50;;;;;;5008296;28;20424;-83
2022/05/03 09:44:57;;;;;;;2.20;2.00;;;23.10;53.50;;;;;;5011579;28;20918;-83
2022/05/03 09:47:33;;;;;;;2.20;1.60;;;23.10;53.50;;;;;;5011352;28;20441;-83
2022/05/03 09:50:01;;;;;;;3.20;2.40;;;23.10;53.50;;;;;;5011838;28;20392;-82
2022/05/03 09:52:32;;;;;;;3.63;2.13;;;23.10;53.50;;;;;;5011493;28;20447;-83
2022/05/03 09:55:05;;;;;;;2.93;2.00;;;23.10;53.50;;;;;;5011792;28;20467;-83
2022/05/03 09:57:33;;;;;;;2.40;2.00;;;23.10;53.50;;;;;;5027195;28;20435;-83
2022/05/03 10:00:01;;;;;;;2.93;2.23;;;23.10;53.60;;;;;;5011037;28;20796;-83
2022/05/03 10:02:28;;;;;;;2.40;2.20;;;23.10;53.50;;;;;;5011196;28;20423;-83
2022/05/03 10:04:56;;;;;;;3.80;2.53;;;23.10;53.50;;;;;;5010577;28;20420;-83
2022/05/03 10:07:23;;;;;;;2.90;2.60;;;23.10;53.50;;;;;;5010873;28;20420;-83
2022/05/03 10:09:49;;;;;;;2.50;2.30;;;23.10;53.50;;;;;;5010128;28;20859;-83
2022/05/03 10:12:16;;;;;;;3.73;2.47;;;23.10;53.50;;;;;;5003333;28;20444;-85
2022/05/03 10:14:43;;;;;;;5.63;2.97;;;23.10;53.50;;;;;;5005973;28;20463;-83
2022/05/03 10:20:37;;;;;;;6.40;4.10;;;23.10;53.60;;;;;;5007613;28;20408;-83
2022/05/03 10:23:03;;;;;;;5.77;4.27;;;23.10;53.60;;;;;;5001444;28;20424;-83
2022/05/03 10:26:09;;;;;;;6.90;4.10;;;23.10;53.60;;;;;;5002106;28;20405;-84
2022/05/03 10:29:10;;;;;;;5.00;4.00;;;23.10;53.70;;;;;;5004584;28;20439;-83
2022/05/03 10:32:05;;;;;;;8.80;4.63;;;23.10;53.70;;;;;;5005655;28;20524;-83
2022/05/03 10:34:44;;;;;;;4.90;4.40;;;23.10;53.70;;;;;;5019043;28;20480;-83
2022/05/03 10:37:17;;;;;;;7.60;5.07;;;23.10;53.70;;;;;;5002095;28;20788;-83
2022/05/03 10:39:48;;;;;;;6.60;5.27;;;23.10;53.70;;;;;;5009405;28;20484;-83
2022/05/03 10:42:16;;;;;;;7.30;5.57;;;23.10;53.70;;;;;;5001384;28;20401;-83
2022/05/03 10:44:53;;;;;;;9.13;5.33;;;23.10;53.70;;;;;;5005580;28;20425;-83
2022/05/03 10:47:39;;;;;;;9.70;6.33;;;23.10;53.70;;;;;;5020227;28;20409;-83
2022/05/03 10:50:19;;;;;;;9.37;5.97;;;23.10;53.70;;;;;;4998322;28;20541;-83
2022/05/03 10:52:54;;;;;;;9.63;6.30;;;23.10;53.80;;;;;;5002237;28;20420;-83
2022/05/03 10:55:24;;;;;;;8.03;5.73;;;23.10;53.80;;;;;;5015577;28;20524;-83
2022/05/03 10:58:24;;;;;;;8.50;5.90;;;23.10;53.80;;;;;;5000994;28;20883;-83
2022/05/03 11:01:28;;;;;;;10.77;6.00;;;23.10;53.80;;;;;;5000547;28;20421;-83
2022/05/03 11:03:57;;;;;;;12.33;7.37;;;23.10;53.80;;;;;;5015307;28;20417;-84
2022/05/03 11:06:23;;;;;;;8.17;5.67;;;23.10;53.80;;;;;;4983181;28;20437;-82
2022/05/03 11:09:19;;;;;;;9.47;6.60;;;23.10;53.80;;;;;;5010668;28;20417;-83
2022/05/03 11:11:49;;;;;;;10.80;7.40;;;23.10;53.80;;;;;;5009471;28;20839;-83
2022/05/03 11:14:25;;;;;;;10.40;6.90;;;23.10;53.90;;;;;;5013514;28;20865;-83
2022/05/03 11:17:08;;;;;;;11.97;6.70;;;23.10;53.90;;;;;;5008866;28;20413;-83
2022/05/03 11:19:55;;;;;;;7.87;6.10;;;23.10;53.80;;;;;;4970590;28;20416;-83
2022/05/03 11:22:29;;;;;;;10.93;7.30;;;23.10;53.90;;;;;;5010077;28;20409;-83
2022/05/03 11:24:57;;;;;;;9.43;6.10;;;23.10;53.90;;;;;;5010933;28;20413;-83
2022/05/03 11:27:24;;;;;;;8.17;6.00;;;23.10;53.90;;;;;;4979319;28;20414;-83
2022/05/03 11:29:59;;;;;;;11.00;7.40;;;23.10;53.90;;;;;;5008401;28;20453;-83
2022/05/03 11:32:29;;;;;;;11.20;6.63;;;23.10;53.90;;;;;;5010697;28;20409;-83
2022/05/03 11:35:08;;;;;;;11.97;6.10;;;23.10;53.90;;;;;;5003361;28;20545;-83
2022/05/03 11:37:35;;;;;;;10.93;6.63;;;23.10;53.90;;;;;;4968133;28;20440;-83
2022/05/03 11:40:03;;;;;;;10.23;6.23;;;23.10;53.90;;;;;;4991433;28;20513;-82
2022/05/03 11:42:39;;;;;;;10.10;5.50;;;23.10;53.80;;;;;;5018018;28;20488;-82
2022/05/03 11:45:07;;;;;;;9.63;6.00;;;23.10;53.90;;;;;;4997949;28;20456;-83
2022/05/03 11:47:35;;;;;;;9.50;6.07;;;23.10;53.90;;;;;;4988828;28;20425;-83
2022/05/03 11:50:03;;;;;;;11.60;6.60;;;23.10;53.80;;;;;;5003324;28;20492;-83
2022/05/03 11:57:57;;;;;;;8.33;6.40;;;23.10;53.90;;;;;;5000316;28;20427;-83
2022/05/03 12:00:23;;;;;;;10.50;6.20;;;23.10;53.90;;;;;;5008016;28;20427;-83
2022/05/03 12:02:49;;;;;;;9.30;6.67;;;23.10;53.90;;;;;;4988647;28;20433;-83
2022/05/03 12:05:23;;;;;;;7.70;5.77;;;23.10;53.90;;;;;;5004855;28;20481;-83
2022/05/03 12:07:51;;;;;;;9.50;6.47;;;23.10;53.90;;;;;;5007510;28;20426;-83
2022/05/03 12:10:27;;;;;;;8.93;5.97;;;23.10;53.90;;;;;;5006381;28;20440;-83
2022/05/03 12:13:16;;;;;;;9.93;5.90;;;23.10;53.90;;;;;;5006050;28;20439;-83
2022/05/03 12:15:48;;;;;;;8.80;6.33;;;23.10;53.90;;;;;;5007489;28;20451;-83
2022/05/03 12:18:53;;;;;;;8.73;5.90;;;23.10;54.00;;;;;;5006517;28;20424;-84
2022/05/03 12:21:28;;;;;;;7.33;5.40;;;23.10;53.90;;;;;;5007307;28;20680;-84
2022/05/03 12:24:00;;;;;;;7.90;6.00;;;23.00;53.90;;;;;;5008492;28;20431;-84
2022/05/03 12:26:35;;;;;;;14.20;5.60;;;23.10;54.00;;;;;;5000621;28;20444;-84
2022/05/03 12:29:03;;;;;;;8.20;5.33;;;23.10;54.00;;;;;;5011581;28;20446;-84
2022/05/03 12:31:35;;;;;;;9.07;5.93;;;23.10;54.00;;;;;;5004914;28;20440;-84
2022/05/03 12:34:03;;;;;;;8.53;5.93;;;23.10;54.00;;;;;;5008814;28;20463;-84
2022/05/03 12:36:56;;;;;;;9.70;5.30;;;23.10;54.00;;;;;;4994475;28;20442;-84
2022/05/03 12:39:25;;;;;;;7.83;5.47;;;23.10;54.00;;;;;;5011913;28;20440;-84
2022/05/03 12:42:22;;;;;;;7.53;5.03;;;23.10;54.00;;;;;;5008847;28;20421;-84
2022/05/03 12:48:10;;;;;;;11.63;6.30;;;23.10;54.00;;;;;;5090334;28;20428;-84
2022/05/03 12:50:39;;;;;;;7.73;5.70;;;23.00;54.00;;;;;;5004801;28;20429;-83
2022/05/03 12:53:05;;;;;;;9.27;5.83;;;23.00;53.90;;;;;;5004688;28;20416;-82
2022/05/03 12:55:34;;;;;;;9.77;5.10;;;23.10;54.00;;;;;;5001153;28;20456;-84
2022/05/03 13:00:48;;;;;;;6.30;4.30;;;23.10;54.00;;;;;;5001563;28;20968;-83
2022/05/03 13:03:17;;;;;;;6.70;4.40;;;23.10;54.00;;;;;;5019166;28;20431;-83
2022/05/03 13:05:44;;;;;;;10.43;5.20;;;23.10;54.00;;;;;;5010189;28;20432;-83
2022/05/03 13:08:11;;;;;;;8.00;5.20;;;23.10;54.00;;;;;;5021601;28;20440;-83
2022/05/03 13:10:39;;;;;;;7.20;4.97;;;23.10;54.00;;;;;;5006868;28;20439;-83
2022/05/03 13:13:07;;;;;;;10.37;5.13;;;23.10;54.00;;;;;;5010174;28;20416;-83
2022/05/03 13:15:36;;;;;;;6.70;5.20;;;23.10;54.10;;;;;;5010278;28;20479;-84
2022/05/03 13:18:03;;;;;;;8.90;5.50;;;23.10;54.00;;;;;;5009945;28;20432;-83
2022/05/03 13:20:33;;;;;;;10.90;5.70;;;23.10;54.10;;;;;;5011310;28;20421;-83
2022/05/03 13:22:59;;;;;;;7.63;4.77;;;23.10;54.10;;;;;;5011781;28;20442;-83
2022/05/03 13:25:29;;;;;;;8.07;5.90;;;23.10;54.10;;;;;;5010472;28;20428;-83
2022/05/03 13:27:58;;;;;;;8.27;4.93;;;23.10;54.10;;;;;;5014398;28;20416;-83
2022/05/03 13:30:26;;;;;;;9.50;5.37;;;23.10;54.10;;;;;;4997101;28;20436;-83
2022/05/03 13:32:53;;;;;;;9.77;5.90;;;23.10;54.10;;;;;;4994486;28;20865;-83
2022/05/03 13:41:13;;;;;;;6.40;4.93;;;23.10;54.10;;;;;;5008355;28;20390;-83
2022/05/03 13:43:39;;;;;;;8.33;4.73;;;23.10;54.20;;;;;;5010712;28;20492;-83
2022/05/03 13:46:05;;;;;;;9.27;6.00;;;23.10;54.20;;;;;;5010169;28;20424;-82
2022/05/03 13:48:31;;;;;;;8.33;4.80;;;23.10;54.20;;;;;;4997399;28;20161;-83
2022/05/03 13:50:56;;;;;;;8.67;5.07;;;23.10;54.20;;;;;;4991805;28;20237;-82
2022/05/03 13:53:27;;;;;;;6.77;5.13;;;23.10;54.30;;;;;;4992624;28;20174;-83
2022/05/03 13:55:56;;;;;;;5.87;5.00;;;23.10;54.20;;;;;;4992375;28;20200;-83
2022/05/03 13:58:26;;;;;;;9.60;5.27;;;23.10;54.20;;;;;;5007715;28;20421;-83